createdAt,value
2018-12-29T00:00:46.312Z,27.97
2018-12-29T00:03:15.151Z,30.62
2018-12-29T00:05:43.972Z,25.30
2018-12-29T00:08:12.819Z,25.83
2018-12-29T00:10:41.662Z,25.33
2018-12-29T00:13:10.496Z,25.70
2018-12-29T00:15:40.081Z,25.47
2018-12-29T00:18:08.920Z,26.60
2018-12-29T00:20:37.760Z,25.47
2018-12-29T00:23:06.599Z,26.77
2018-12-29T00:25:35.437Z,28.95
2018-12-29T00:28:04.281Z,28.98
2018-12-29T00:30:33.155Z,27.65
2018-12-29T00:33:01.961Z,25.57
2018-12-29T00:35:30.799Z,25.93
2018-12-29T00:37:59.636Z,24.70
2018-12-29T00:40:28.463Z,28.12
2018-12-29T00:42:57.891Z,25.30
2018-12-29T00:45:27.477Z,25.20
2018-12-29T00:47:57.047Z,24.17
2018-12-29T00:50:25.916Z,27.93
2018-12-29T00:52:55.459Z,23.10
2018-12-29T00:55:24.308Z,26.30
2018-12-29T00:57:53.178Z,26.33
2018-12-29T01:00:21.987Z,22.63
2018-12-29T01:02:50.828Z,23.27
2018-12-29T01:05:20.259Z,22.70
2018-12-29T01:07:49.105Z,25.57
2018-12-29T01:10:17.950Z,27.70
2018-12-29T01:12:46.795Z,25.07
2018-12-29T01:15:15.628Z,24.07
2018-12-29T01:17:44.471Z,22.83
2018-12-29T01:20:13.298Z,23.60
2018-12-29T01:22:42.131Z,22.33
2018-12-29T01:25:10.973Z,24.27
2018-12-29T01:27:40.546Z,22.20
2018-12-29T01:30:09.383Z,22.90
2018-12-29T01:32:38.225Z,22.47
2018-12-29T01:35:07.074Z,23.20
2018-12-29T01:37:35.919Z,24.50
2018-12-29T01:40:05.509Z,24.30
2018-12-29T01:42:34.356Z,23.60
2018-12-29T01:45:03.195Z,26.12
2018-12-29T01:47:32.026Z,23.43
2018-12-29T01:50:00.861Z,23.80
2018-12-29T01:52:29.696Z,23.83
2018-12-29T01:54:58.530Z,24.20
2018-12-29T01:57:27.365Z,23.37
2018-12-29T01:59:56.207Z,23.50
2018-12-29T02:02:25.054Z,22.80
2018-12-29T02:04:53.867Z,24.17
2018-12-29T02:07:23.454Z,22.67
2018-12-29T02:09:52.300Z,22.20
2018-12-29T02:12:21.146Z,22.70
2018-12-29T02:14:50.726Z,21.30
2018-12-29T02:17:19.598Z,20.87
2018-12-29T02:19:48.469Z,23.20
2018-12-29T02:22:17.276Z,21.23
2018-12-29T02:24:46.108Z,21.07
2018-12-29T02:27:15.686Z,21.03
2018-12-29T02:29:44.520Z,21.10
2018-12-29T02:32:13.365Z,22.93
2018-12-29T02:34:42.194Z,21.40
2018-12-29T02:37:11.063Z,17.23
2018-12-29T02:39:39.907Z,23.97
2018-12-29T02:42:08.743Z,23.27
2018-12-29T02:44:37.617Z,24.07
2018-12-29T02:47:07.214Z,27.27
2018-12-29T02:49:36.055Z,27.05
2018-12-29T02:52:04.895Z,24.97
2018-12-29T02:54:33.735Z,24.97
2018-12-29T02:57:02.571Z,23.83
2018-12-29T02:59:31.421Z,25.13
2018-12-29T03:02:00.305Z,25.47
2018-12-29T03:04:29.109Z,25.33
2018-12-29T03:06:57.959Z,27.27
2018-12-29T03:09:27.535Z,26.20
2018-12-29T03:11:56.385Z,25.77
2018-12-29T03:14:25.231Z,25.77
2018-12-29T03:16:54.052Z,19.07
2018-12-29T03:19:22.905Z,25.30
2018-12-29T03:21:51.753Z,25.07
2018-12-29T03:24:20.601Z,28.27
2018-12-29T03:26:49.444Z,24.07
2018-12-29T03:29:18.281Z,25.80
2018-12-29T03:31:47.857Z,25.20
2018-12-29T03:34:16.716Z,25.33
2018-12-29T03:36:45.543Z,25.87
2018-12-29T03:39:14.393Z,26.13
2018-12-29T03:41:43.234Z,24.77
2018-12-29T03:44:12.816Z,23.63
2018-12-29T03:46:41.653Z,23.57
2018-12-29T03:49:10.503Z,23.63
2018-12-29T03:51:39.347Z,24.27
2018-12-29T03:54:08.188Z,26.23
2018-12-29T03:56:37.775Z,23.93
2018-12-29T03:59:06.634Z,26.47
2018-12-29T04:01:35.463Z,24.30
2018-12-29T04:04:04.294Z,23.03
2018-12-29T04:06:33.133Z,24.90
2018-12-29T04:09:19.767Z,22.97
2018-12-29T04:11:48.606Z,24.67
2018-12-29T04:14:17.439Z,24.37
2018-12-29T04:16:46.291Z,24.33
2018-12-29T04:19:15.116Z,25.90
2018-12-29T04:21:43.954Z,26.90
2018-12-29T04:24:12.807Z,25.58
2018-12-29T04:26:41.656Z,23.37
2018-12-29T04:29:10.479Z,23.53
2018-12-29T04:31:40.059Z,24.10
2018-12-29T04:34:08.892Z,24.73
2018-12-29T04:36:37.724Z,23.07
2018-12-29T04:39:06.568Z,25.40
2018-12-29T04:41:35.413Z,23.87
2018-12-29T04:44:04.248Z,24.03
2018-12-29T04:46:33.090Z,23.40
2018-12-29T04:49:01.930Z,24.17
2018-12-29T04:51:30.764Z,26.30
2018-12-29T04:53:59.594Z,24.07
2018-12-29T04:56:28.466Z,25.27
2018-12-29T04:58:57.318Z,24.07
2018-12-29T05:01:26.154Z,26.62
2018-12-29T05:03:54.990Z,24.43
2018-12-29T05:06:23.830Z,25.70
2018-12-29T05:08:53.416Z,24.30
2018-12-29T05:11:22.255Z,22.90
2018-12-29T05:13:51.095Z,23.10
2018-12-29T05:16:19.936Z,24.37
2018-12-29T05:18:49.706Z,22.67
2018-12-29T05:21:19.292Z,24.37
2018-12-29T05:23:48.124Z,26.90
2018-12-29T05:26:16.952Z,24.73
2018-12-29T05:28:45.798Z,22.77
2018-12-29T05:31:14.632Z,22.93
2018-12-29T05:33:43.472Z,22.97
2018-12-29T05:36:13.076Z,22.97
2018-12-29T05:38:42.648Z,23.17
2018-12-29T05:41:11.493Z,24.87
2018-12-29T05:43:40.325Z,25.13
2018-12-29T05:46:09.151Z,25.37
2018-12-29T05:48:37.997Z,27.53
2018-12-29T05:51:06.848Z,27.40
2018-12-29T05:53:35.711Z,26.30
2018-12-29T05:56:05.296Z,24.33
2018-12-29T05:58:34.144Z,25.67
2018-12-29T06:01:02.993Z,26.10
2018-12-29T06:03:32.571Z,26.63
2018-12-29T06:06:01.412Z,28.27
2018-12-29T06:08:30.986Z,25.83
2018-12-29T06:10:59.822Z,24.73
2018-12-29T06:13:28.663Z,24.63
2018-12-29T06:15:58.256Z,24.63
2018-12-29T06:18:27.151Z,27.70
2018-12-29T06:20:55.954Z,25.10
2018-12-29T06:23:25.537Z,24.83
2018-12-29T06:25:54.367Z,27.43
2018-12-29T06:28:23.214Z,26.20
2018-12-29T06:30:52.056Z,24.93
2018-12-29T06:33:20.983Z,24.33
2018-12-29T06:35:49.786Z,25.00
2018-12-29T06:38:18.648Z,23.23
2018-12-29T06:40:47.500Z,25.60
2018-12-29T06:43:16.354Z,23.63
2018-12-29T06:45:45.343Z,24.43
2018-12-29T06:48:14.180Z,26.92
2018-12-29T06:50:43.034Z,25.30
2018-12-29T06:53:11.894Z,27.75
2018-12-29T06:55:40.728Z,25.23
2018-12-29T06:58:10.314Z,24.13
2018-12-29T07:00:39.175Z,24.80
2018-12-29T07:03:08.022Z,27.27
2018-12-29T07:05:36.874Z,25.27
2018-12-29T07:08:05.727Z,24.97
2018-12-29T07:10:34.561Z,25.33
2018-12-29T07:13:03.423Z,24.83
2018-12-29T07:15:32.262Z,23.30
2018-12-29T07:18:01.866Z,23.97
2018-12-29T07:20:31.539Z,25.63
2018-12-29T07:23:00.328Z,26.50
2018-12-29T07:25:29.166Z,25.40
2018-12-29T07:27:58.012Z,25.53
2018-12-29T07:30:26.850Z,24.73
2018-12-29T07:32:55.680Z,24.93
2018-12-29T07:35:24.519Z,24.70
2018-12-29T07:37:53.398Z,25.20
2018-12-29T07:40:22.254Z,24.90
2018-12-29T07:42:51.106Z,25.07
2018-12-29T07:45:19.997Z,26.43
2018-12-29T07:47:49.539Z,27.13
2018-12-29T07:50:18.382Z,24.83
2018-12-29T07:52:47.228Z,25.43
2018-12-29T07:55:16.074Z,25.17
2018-12-29T07:57:44.925Z,30.10
2018-12-29T08:00:13.791Z,27.07
2018-12-29T08:02:42.626Z,25.93
2018-12-29T08:05:11.472Z,25.43
2018-12-29T08:07:40.311Z,27.37
2018-12-29T08:10:09.144Z,25.33
2018-12-29T08:12:37.982Z,27.43
2018-12-29T08:15:06.809Z,27.60
2018-12-29T08:17:36.396Z,26.40
2018-12-29T08:20:05.241Z,26.43
2018-12-29T08:22:34.067Z,27.97
2018-12-29T08:25:02.943Z,26.93
2018-12-29T08:27:31.781Z,31.15
2018-12-29T08:30:00.619Z,26.03
2018-12-29T08:32:29.454Z,25.90
2018-12-29T08:34:58.297Z,25.03
2018-12-29T08:37:27.133Z,25.53
2018-12-29T08:39:55.965Z,27.30
2018-12-29T08:42:24.807Z,26.20
2018-12-29T08:44:53.649Z,29.15
2018-12-29T08:47:22.482Z,25.10
2018-12-29T08:49:51.323Z,25.00
2018-12-29T08:52:20.151Z,26.20
2018-12-29T08:54:49.729Z,29.07
2018-12-29T08:57:18.565Z,34.37
2018-12-29T08:59:47.397Z,31.80
2018-12-29T09:02:16.286Z,27.17
2018-12-29T09:04:45.086Z,25.27
2018-12-29T09:07:13.915Z,26.80
2018-12-29T09:09:42.751Z,25.57
2018-12-29T09:12:11.581Z,25.60
2018-12-29T09:14:41.163Z,25.77
2018-12-29T09:17:12.261Z,28.60
2018-12-29T09:19:38.835Z,24.90
2018-12-29T09:22:07.674Z,24.93
2018-12-29T09:24:36.504Z,25.20
2018-12-29T09:27:05.348Z,24.83
2018-12-29T09:29:34.211Z,24.67
2018-12-29T09:32:03.042Z,23.83
2018-12-29T09:34:31.874Z,24.40
2018-12-29T09:37:00.708Z,24.77
2018-12-29T09:39:29.616Z,24.80
2018-12-29T09:41:58.402Z,24.53
2018-12-29T09:44:27.241Z,26.47
2018-12-29T09:46:56.842Z,25.70
2018-12-29T09:49:25.692Z,25.93
2018-12-29T09:51:54.515Z,25.60
2018-12-29T09:54:23.349Z,26.40
2018-12-29T09:56:52.222Z,25.67
2018-12-29T09:59:21.053Z,25.37
2018-12-29T10:01:49.871Z,25.60
2018-12-29T10:04:18.701Z,23.57
2018-12-29T10:06:47.567Z,24.17
2018-12-29T10:09:16.363Z,23.53
2018-12-29T10:11:45.207Z,24.50
2018-12-29T10:14:14.047Z,26.63
2018-12-29T10:16:42.883Z,26.67
2018-12-29T10:19:11.720Z,26.50
2018-12-29T10:21:40.561Z,24.80
2018-12-29T10:24:09.408Z,24.10
2018-12-29T10:26:38.239Z,25.33
2018-12-29T10:29:07.092Z,24.87
2018-12-29T10:31:35.950Z,27.55
2018-12-29T10:34:05.537Z,25.73
2018-12-29T10:36:34.371Z,24.53
2018-12-29T10:39:03.219Z,24.83
2018-12-29T10:41:32.061Z,24.37
2018-12-29T10:44:00.899Z,25.87
2018-12-29T10:46:30.467Z,25.80
2018-12-29T10:48:59.313Z,27.30
2018-12-29T10:51:28.893Z,24.93
2018-12-29T10:53:57.738Z,27.63
2018-12-29T10:56:26.585Z,28.90
2018-12-29T10:58:56.467Z,26.50
2018-12-29T11:01:24.679Z,24.87
2018-12-29T11:03:53.533Z,24.50
2018-12-29T11:06:22.378Z,28.40
2018-12-29T11:08:51.995Z,23.50
2018-12-29T11:11:20.802Z,24.50
2018-12-29T11:13:49.643Z,24.57
2018-12-29T11:16:19.243Z,24.73
2018-12-29T11:18:48.499Z,24.80
2018-12-29T11:21:16.920Z,24.13
2018-12-29T11:23:45.835Z,25.60
2018-12-29T11:26:14.773Z,24.43
2018-12-29T11:28:43.496Z,27.67
2018-12-29T11:31:12.348Z,24.90
2018-12-29T11:33:41.171Z,28.55
2018-12-29T11:36:10.753Z,24.80
2018-12-29T11:38:39.579Z,22.83
2018-12-29T11:41:09.182Z,24.43
2018-12-29T11:43:38.039Z,25.67
2018-12-29T11:46:06.882Z,24.83
2018-12-29T11:48:35.714Z,25.27
2018-12-29T11:51:04.563Z,25.90
2018-12-29T11:53:33.403Z,26.90
2018-12-29T11:56:02.280Z,27.67
2018-12-29T11:58:31.133Z,27.03
2018-12-29T12:00:59.972Z,25.07
2018-12-29T12:03:28.815Z,25.83
2018-12-29T12:05:57.663Z,26.53
2018-12-29T12:08:26.542Z,26.47
2018-12-29T12:10:55.959Z,28.97
2018-12-29T12:13:24.816Z,20.63
2018-12-29T12:15:53.652Z,30.02
2018-12-29T12:18:23.395Z,27.60
2018-12-29T12:20:52.086Z,25.50
2018-12-29T12:23:20.921Z,27.43
2018-12-29T12:25:49.773Z,26.47
2018-12-29T12:28:18.605Z,28.83
2018-12-29T12:30:47.450Z,27.20
2018-12-29T12:33:16.283Z,28.30
2018-12-29T12:35:45.155Z,28.90
2018-12-29T12:38:13.953Z,28.33
2018-12-29T12:40:43.533Z,29.37
2018-12-29T12:43:12.367Z,28.53
2018-12-29T12:45:41.204Z,27.57
2018-12-29T12:48:10.041Z,28.40
2018-12-29T12:50:39.615Z,30.47
2018-12-29T12:53:08.471Z,27.80
2018-12-29T12:55:37.353Z,32.38
2018-12-29T12:58:06.164Z,31.03
2018-12-29T13:00:34.994Z,31.37
2018-12-29T13:03:04.586Z,30.35
2018-12-29T13:05:33.457Z,31.45
2018-12-29T13:08:02.250Z,30.77
2018-12-29T13:10:31.140Z,28.73
2018-12-29T13:12:59.978Z,33.75
2018-12-29T13:15:28.821Z,28.80
2018-12-29T13:17:57.660Z,30.83
2018-12-29T13:20:26.507Z,30.07
2018-12-29T13:22:55.362Z,30.90
2018-12-29T13:25:24.195Z,33.33
2018-12-29T13:27:53.036Z,30.23
2018-12-29T13:30:21.872Z,28.60
2018-12-29T13:32:51.469Z,28.70
2018-12-29T13:35:20.300Z,29.47
2018-12-29T13:37:49.138Z,28.17
2018-12-29T13:40:17.990Z,28.70
2018-12-29T13:42:46.832Z,30.27
2018-12-29T13:45:15.701Z,30.23
2018-12-29T13:47:44.549Z,36.95
2018-12-29T13:50:13.381Z,30.37
2018-12-29T13:52:42.209Z,29.43
2018-12-29T13:55:11.080Z,29.60
2018-12-29T13:57:40.652Z,30.97
2018-12-29T14:00:09.504Z,33.60
2018-12-29T14:02:38.353Z,27.93
2018-12-29T14:05:07.193Z,28.40
2018-12-29T14:07:36.054Z,27.33
2018-12-29T14:10:04.903Z,33.38
2018-12-29T14:12:33.738Z,21.67
2018-12-29T14:15:03.185Z,27.97
2018-12-29T14:17:32.025Z,27.63
2018-12-29T14:20:00.901Z,28.27
2018-12-29T14:22:29.747Z,29.87
2018-12-29T14:24:58.592Z,28.23
2018-12-29T14:27:27.462Z,28.43
2018-12-29T14:29:56.287Z,28.03
2018-12-29T14:32:25.140Z,28.87
2018-12-29T14:34:53.998Z,32.88
2018-12-29T14:37:23.568Z,28.43
2018-12-29T14:39:53.172Z,28.97
2018-12-29T14:42:22.019Z,28.30
2018-12-29T14:44:50.852Z,28.73
2018-12-29T14:47:19.702Z,27.63
2018-12-29T14:49:48.562Z,32.22
2018-12-29T14:52:17.442Z,29.13
2018-12-29T14:54:46.277Z,30.83
2018-12-29T14:57:15.120Z,29.73
2018-12-29T14:59:43.985Z,30.97
2018-12-29T15:02:12.882Z,28.27
2018-12-29T15:04:41.740Z,35.55
2018-12-29T15:07:10.592Z,31.03
2018-12-29T15:09:39.458Z,28.40
2018-12-29T15:12:09.032Z,29.33
2018-12-29T15:14:37.872Z,33.00
2018-12-29T15:17:06.708Z,27.53
2018-12-29T15:19:35.595Z,27.73
2018-12-29T15:22:04.412Z,29.47
2018-12-29T15:24:33.275Z,27.50
2018-12-29T15:27:02.126Z,32.15
2018-12-29T15:29:30.969Z,26.17
2018-12-29T15:31:59.839Z,26.77
2018-12-29T15:34:28.677Z,31.42
2018-12-29T15:36:58.257Z,25.03
2018-12-29T15:39:27.110Z,27.70
2018-12-29T15:41:55.953Z,29.08
2018-12-29T15:44:25.527Z,24.27
2018-12-29T15:46:54.383Z,26.60
2018-12-29T15:49:23.228Z,26.73
2018-12-29T15:51:52.088Z,25.70
2018-12-29T15:54:20.927Z,27.95
2018-12-29T15:56:49.780Z,23.80
2018-12-29T15:59:19.206Z,22.93
2018-12-29T16:01:48.059Z,22.97
2018-12-29T16:04:16.909Z,24.25
2018-12-29T16:06:45.781Z,20.60
2018-12-29T16:09:14.590Z,20.13
2018-12-29T16:11:43.444Z,20.07
2018-12-29T16:14:12.305Z,22.25
2018-12-29T16:16:41.157Z,18.97
2018-12-29T16:19:10.006Z,19.07
2018-12-29T16:21:38.858Z,19.47
2018-12-29T16:24:07.707Z,23.30
2018-12-29T16:26:36.569Z,20.37
2018-12-29T16:29:05.416Z,22.25
2018-12-29T16:31:34.276Z,21.70
2018-12-29T16:34:03.106Z,19.50
2018-12-29T16:36:31.953Z,19.47
2018-12-29T16:39:01.540Z,19.57
2018-12-29T16:41:31.138Z,19.87
2018-12-29T16:43:59.990Z,19.53
2018-12-29T16:46:28.826Z,20.60
2018-12-29T16:48:57.667Z,20.23
2018-12-29T16:51:26.514Z,21.00
2018-12-29T16:53:55.419Z,20.87
2018-12-29T16:56:24.982Z,20.20
2018-12-29T16:58:53.851Z,23.73
2018-12-29T17:01:22.691Z,20.03
2018-12-29T17:03:52.331Z,21.43
2018-12-29T17:06:21.956Z,20.60
2018-12-29T17:08:50.822Z,22.60
2018-12-29T17:11:19.639Z,20.40
2018-12-29T17:13:48.531Z,20.47
2018-12-29T17:16:17.350Z,22.00
2018-12-29T17:18:46.803Z,21.17
2018-12-29T17:21:15.696Z,23.27
2018-12-29T17:23:44.536Z,23.27
2018-12-29T17:26:13.396Z,22.83
2018-12-29T17:28:42.238Z,24.42
2018-12-29T17:31:11.083Z,22.53
2018-12-29T17:33:39.945Z,23.73
2018-12-29T17:36:08.797Z,26.93
2018-12-29T17:38:37.768Z,26.70
2018-12-29T17:41:06.573Z,27.87
2018-12-29T17:43:36.213Z,26.93
2018-12-29T17:46:05.061Z,25.67
2018-12-29T17:48:33.899Z,27.33
2018-12-29T17:51:02.748Z,27.03
2018-12-29T17:53:31.584Z,27.50
2018-12-29T17:56:00.434Z,29.57
2018-12-29T17:58:29.287Z,28.47
2018-12-29T18:00:58.137Z,28.63
2018-12-29T18:03:26.977Z,29.40
2018-12-29T18:05:55.832Z,28.57
2018-12-29T18:08:24.669Z,30.93
2018-12-29T18:10:54.255Z,31.80
2018-12-29T18:13:23.109Z,33.33
2018-12-29T18:15:51.986Z,30.53
2018-12-29T18:18:20.827Z,30.33
2018-12-29T18:20:49.689Z,29.30
2018-12-29T18:23:18.576Z,31.92
2018-12-29T18:25:47.398Z,27.83
2018-12-29T18:28:16.264Z,27.27
2018-12-29T18:30:45.131Z,29.90
2018-12-29T18:33:13.979Z,31.83
2018-12-29T18:35:43.571Z,31.07
2018-12-29T18:38:12.433Z,29.50
2018-12-29T18:40:41.312Z,30.85
2018-12-29T18:43:10.154Z,27.50
2018-12-29T18:45:38.969Z,28.47
2018-12-29T18:48:07.838Z,29.80
2018-12-29T18:50:36.689Z,30.87
2018-12-29T18:53:05.533Z,29.53
2018-12-29T18:55:34.393Z,30.10
2018-12-29T18:58:03.974Z,31.93
2018-12-29T19:00:32.820Z,31.63
2018-12-29T19:03:01.730Z,44.67
2018-12-29T19:05:30.659Z,39.00
2018-12-29T19:07:59.522Z,37.20
2018-12-29T19:10:28.375Z,33.83
2018-12-29T19:12:57.278Z,35.63
2018-12-29T19:15:27.677Z,34.77
2018-12-29T19:17:55.743Z,32.90
2018-12-29T19:20:25.343Z,33.70
2018-12-29T19:22:54.970Z,36.50
2018-12-29T19:25:23.830Z,37.00
2018-12-29T19:27:52.686Z,35.53
2018-12-29T19:30:21.592Z,41.58
2018-12-29T19:32:50.452Z,36.07
2018-12-29T19:35:19.253Z,35.03
2018-12-29T19:37:48.148Z,41.05
2018-12-29T19:40:16.951Z,33.43
2018-12-29T19:42:45.803Z,33.60
2018-12-29T19:45:14.757Z,31.80
2018-12-29T19:47:43.625Z,32.80
2018-12-29T19:50:13.054Z,32.97
2018-12-29T19:52:42.654Z,35.07
2018-12-29T19:55:12.260Z,33.20
2018-12-29T19:57:41.861Z,32.80
2018-12-29T20:00:11.456Z,34.27
2018-12-29T20:02:40.296Z,38.17
2018-12-29T20:05:09.174Z,35.50
2018-12-29T20:07:37.983Z,32.63
2018-12-29T20:10:06.859Z,35.33
2018-12-29T20:12:35.696Z,37.78
2018-12-29T20:15:04.545Z,36.85
2018-12-29T20:17:35.043Z,31.20
2018-12-29T20:20:02.262Z,36.20
2018-12-29T20:22:31.120Z,31.00
2018-12-29T20:24:59.916Z,32.07
2018-12-29T20:27:29.493Z,30.97
2018-12-29T20:29:58.344Z,34.57
2018-12-29T20:32:27.178Z,34.40
2018-12-29T20:34:56.035Z,34.43
2018-12-29T20:37:24.878Z,34.07
2018-12-29T20:39:54.461Z,36.60
2018-12-29T20:42:23.321Z,35.87
2018-12-29T20:44:52.155Z,35.60
2018-12-29T20:47:21.022Z,36.47
2018-12-29T20:49:49.872Z,35.17
2018-12-29T20:52:18.740Z,36.00
2018-12-29T20:54:47.619Z,35.07
2018-12-29T20:57:17.220Z,35.33
2018-12-29T20:59:46.074Z,39.90
2018-12-29T21:02:14.915Z,35.07
2018-12-29T21:04:43.781Z,34.47
2018-12-29T21:07:12.638Z,32.93
2018-12-29T21:09:41.529Z,25.20
2018-12-29T21:12:10.371Z,28.40
2018-12-29T21:14:39.212Z,28.80
2018-12-29T21:17:08.112Z,26.10
2018-12-29T21:19:37.071Z,25.63
2018-12-29T21:22:07.410Z,24.87
2018-12-29T21:24:35.400Z,25.97
2018-12-29T21:27:04.257Z,23.50
2018-12-29T21:29:33.100Z,24.47
2018-12-29T21:32:02.701Z,24.63
2018-12-29T21:34:31.560Z,28.00
2018-12-29T21:37:00.411Z,25.50
2018-12-29T21:39:29.269Z,22.40
2018-12-29T21:41:58.091Z,20.90
2018-12-29T21:44:26.951Z,18.63
2018-12-29T21:46:55.805Z,17.27
2018-12-29T21:49:24.649Z,19.62
2018-12-29T21:51:53.515Z,17.77
2018-12-29T21:54:22.397Z,15.63
2018-12-29T21:56:51.196Z,15.30
2018-12-29T21:59:20.027Z,16.27
2018-12-29T22:01:48.874Z,16.92
2018-12-29T22:04:17.713Z,14.80
2018-12-29T22:06:46.550Z,15.35
2018-12-29T22:09:15.423Z,13.07
2018-12-29T22:11:44.370Z,14.47
2018-12-29T22:14:13.233Z,13.80
2018-12-29T22:16:42.844Z,13.93
2018-12-29T22:19:11.701Z,15.67
2018-12-29T22:21:40.842Z,13.43
2018-12-29T22:24:09.681Z,13.47
2018-12-29T22:26:38.680Z,13.47
2018-12-29T22:29:08.275Z,13.40
2018-12-29T22:31:37.128Z,16.10
2018-12-29T22:34:05.982Z,14.40
2018-12-29T22:36:34.827Z,15.03
2018-12-29T22:39:03.664Z,14.60
2018-12-29T22:41:32.503Z,15.30
2018-12-29T22:44:01.389Z,15.93
2018-12-29T22:46:30.292Z,16.00
2018-12-29T22:48:59.120Z,15.70
2018-12-29T22:51:28.716Z,15.17
2018-12-29T22:54:37.691Z,16.37
2018-12-29T22:57:06.535Z,16.60
2018-12-29T22:59:35.470Z,15.40
2018-12-29T23:02:04.349Z,16.70
2018-12-29T23:04:33.197Z,16.50
2018-12-29T23:07:02.057Z,16.80
2018-12-29T23:09:30.899Z,17.92
2018-12-29T23:11:59.747Z,15.83
2018-12-29T23:14:28.584Z,15.87
2018-12-29T23:16:58.173Z,15.87
2018-12-29T23:19:27.753Z,15.63
2018-12-29T23:21:56.597Z,15.57
2018-12-29T23:24:25.501Z,16.40
2018-12-29T23:26:54.297Z,16.17
2018-12-29T23:29:23.139Z,16.63
2018-12-29T23:31:52.015Z,16.37
2018-12-29T23:34:20.833Z,16.03
2018-12-29T23:36:49.675Z,17.00
2018-12-29T23:39:18.529Z,18.30
2018-12-29T23:41:47.378Z,17.73
2018-12-29T23:44:16.233Z,18.13
2018-12-29T23:46:45.079Z,20.52
2018-12-29T23:49:13.941Z,19.00
2018-12-29T23:51:42.795Z,18.53
2018-12-29T23:54:11.647Z,18.67
2018-12-29T23:56:40.505Z,19.23
2018-12-29T23:59:09.372Z,18.93
